Time;durP1;ratioP1;P1;durP2;ratioP2;P2;SDS_P1;SDS_P2;PMS_P1;PMS_P2;Temp;Humidity;BMP_temperature;BMP_pressure;BME280_temperature;BME280_humidity;BME280_pressure;Samples;Min_cycle;Max_cycle;Signal;HPM_P1;HPM_P2
2023/02/14 00:01:38;;;;;;;30.35;15.48;;;6.40;99.90;;;;;;5100727;28;20312;-78
2023/02/14 00:04:05;;;;;;;29.02;16.10;;;6.20;55.60;;;;;;5099022;28;20686;-79
2023/02/14 00:06:34;;;;;;;27.17;16.42;;;6.20;1.00;;;;;;5095110;28;20217;-79
2023/02/14 00:09:01;;;;;;;27.45;14.00;;;5.90;85.00;;;;;;5094757;28;20212;-78
2023/02/14 00:11:28;;;;;;;29.15;14.45;;;;;;;;;;5094903;28;20221;-80
2023/02/14 00:16:42;;;;;;;27.08;13.95;;;6.10;1.00;;;;;;5096299;28;20188;-80
2023/02/14 00:19:11;;;;;;;27.60;15.13;;;6.70;46.50;;;;;;5096163;28;20240;-79
2023/02/14 00:21:39;;;;;;;31.77;17.20;;;6.00;1.00;;;;;;5095511;28;20222;-80
2023/02/14 00:24:08;;;;;;;30.80;17.10;;;6.00;1.00;;;;;;5094832;28;20213;-78
2023/02/14 00:26:37;;;;;;;28.58;16.95;;;6.20;99.90;;;;;;5097307;28;20582;-78
2023/02/14 00:29:04;;;;;;;32.63;19.25;;;;;;;;;;5098666;28;20206;-78
2023/02/14 00:31:31;;;;;;;32.72;16.85;;;;;;;;;;5098613;28;20321;-79
2023/02/14 00:34:00;;;;;;;29.98;16.15;;;6.10;1.00;;;;;;5098373;28;20209;-78
2023/02/14 00:36:27;;;;;;;30.20;16.77;;;6.00;1.00;;;;;;5102092;28;20198;-78
2023/02/14 00:38:54;;;;;;;34.17;17.33;;;6.10;1.00;;;;;;5108764;28;20206;-77
2023/02/14 00:41:21;;;;;;;28.08;16.45;;;6.30;1.00;;;;;;5109881;28;20724;-78
2023/02/14 00:43:48;;;;;;;31.13;15.55;;;5.90;1.00;;;;;;5115935;28;20270;-77
2023/02/14 00:46:16;;;;;;;27.08;14.55;;;6.30;1.00;;;;;;5118865;28;20222;-78
2023/02/14 00:48:44;;;;;;;29.50;15.32;;;6.40;1.00;;;;;;5115258;28;20216;-78
2023/02/14 00:51:12;;;;;;;30.25;14.38;;;6.20;1.00;;;;;;5107931;28;20220;-78
2023/02/14 00:53:40;;;;;;;31.05;14.73;;;5.90;1.00;;;;;;5107949;28;20298;-78
2023/02/14 00:56:07;;;;;;;32.42;16.02;;;6.20;1.00;;;;;;5107189;28;20574;-78
2023/02/14 00:58:34;;;;;;;34.85;17.42;;;6.10;1.00;;;;;;5107404;28;20278;-78
2023/02/14 01:01:01;;;;;;;31.55;17.77;;;6.20;1.00;;;;;;5107468;28;20233;-78
2023/02/14 01:03:28;;;;;;;30.20;15.52;;;6.10;1.00;;;;;;5111019;28;20197;-78
2023/02/14 01:05:55;;;;;;;25.17;15.20;;;6.30;1.00;;;;;;5111508;28;20305;-78
2023/02/14 01:08:24;;;;;;;28.08;15.95;;;6.20;1.00;;;;;;5110301;28;20205;-78
2023/02/14 01:10:51;;;;;;;32.25;16.15;;;;;;;;;;5107852;28;20236;-78
2023/02/14 01:13:19;;;;;;;29.33;15.02;;;6.00;1.00;;;;;;5106793;28;20316;-78
2023/02/14 01:15:47;;;;;;;26.60;14.40;;;6.40;1.00;;;;;;5106605;28;20236;-78
2023/02/14 01:18:15;;;;;;;28.10;15.32;;;6.30;1.00;;;;;;5107070;28;20198;-78
2023/02/14 01:20:43;;;;;;;30.50;15.23;;;;;;;;;;5106698;28;20226;-78
2023/02/14 01:23:09;;;;;;;33.22;15.50;;;6.20;1.00;;;;;;5105614;28;20269;-78
2023/02/14 01:25:39;;;;;;;35.40;17.27;;;6.20;1.00;;;;;;5104552;28;20244;-79
2023/02/14 01:28:06;;;;;;;32.30;16.52;;;6.00;1.00;;;;;;5103619;28;20206;-79
2023/02/14 01:30:34;;;;;;;35.67;16.40;;;;;;;;;;5101317;28;20222;-78
2023/02/14 01:33:01;;;;;;;27.05;16.13;;;5.60;1.00;;;;;;5099463;28;20258;-78
2023/02/14 01:35:27;;;;;;;25.98;15.07;;;6.10;1.00;;;;;;5098522;28;20206;-78
2023/02/14 01:37:54;;;;;;;27.35;14.25;;;6.00;4.00;;;;;;5097801;28;20203;-78
2023/02/14 01:40:21;;;;;;;37.38;16.80;;;6.20;1.00;;;;;;5098407;28;20230;-78
2023/02/14 01:42:49;;;;;;;31.10;15.32;;;6.10;1.00;;;;;;5098169;28;20208;-78
2023/02/14 01:45:20;;;;;;;26.85;13.85;;;6.30;8.40;;;;;;5099624;28;20202;-78
2023/02/14 01:47:51;;;;;;;32.83;17.88;;;5.70;1.00;;;;;;5100001;28;20572;-78
2023/02/14 01:50:22;;;;;;;28.05;16.55;;;7.60;1.00;;;;;;5103649;28;20228;-79
2023/02/14 01:52:52;;;;;;;32.17;16.67;;;6.00;99.90;;;;;;5104556;28;20190;-79
2023/02/14 01:55:22;;;;;;;34.03;16.88;;;6.30;1.00;;;;;;5102392;28;20190;-78
2023/02/14 01:57:54;;;;;;;34.45;16.73;;;6.20;1.00;;;;;;5098884;28;20208;-79
2023/02/14 02:03:09;;;;;;;35.35;18.55;;;5.80;1.00;;;;;;5071066;28;20186;-78
2023/02/14 02:05:38;;;;;;;32.95;17.92;;;6.00;1.00;;;;;;5097514;28;20198;-80
2023/02/14 02:08:05;;;;;;;32.85;17.95;;;;;;;;;;5096923;28;20197;-78
2023/02/14 02:10:32;;;;;;;33.80;17.92;;;5.90;1.00;;;;;;5103426;28;20222;-79
2023/02/14 02:13:07;;;;;;;31.70;18.40;;;6.00;1.00;;;;;;5105026;28;20261;-79
2023/02/14 02:15:42;;;;;;;30.13;17.63;;;5.90;1.00;;;;;;5103677;28;20204;-78
2023/02/14 02:18:15;;;;;;;30.35;17.38;;;6.10;1.00;;;;;;5099969;28;20189;-79
2023/02/14 02:21:21;;;;;;;35.30;18.25;;;5.80;1.00;;;;;;5097193;28;20221;-78
2023/02/14 02:24:15;;;;;;;37.00;18.48;;;6.20;1.00;;;;;;5097085;28;20543;-79
2023/02/14 02:27:09;;;;;;;31.33;16.52;;;6.00;1.00;;;;;;5097377;28;20221;-79
2023/02/14 02:30:23;;;;;;;25.00;14.95;;;5.80;1.00;;;;;;5096438;28;20206;-79
2023/02/14 02:33:34;;;;;;;28.55;17.55;;;5.70;1.00;;;;;;5095842;28;20572;-79
2023/02/14 02:36:29;;;;;;;30.27;16.27;;;5.70;1.00;;;;;;5032012;28;20211;-78
2023/02/14 02:39:11;;;;;;;37.10;19.63;;;6.70;1.00;;;;;;5095999;28;20186;-79
2023/02/14 02:41:50;;;;;;;31.00;18.42;;;5.90;1.00;;;;;;5095278;28;20232;-79
2023/02/14 02:44:21;;;;;;;35.80;18.42;;;5.50;1.00;;;;;;5095594;28;20712;-79
2023/02/14 02:47:01;;;;;;;30.45;17.58;;;5.90;1.00;;;;;;5095964;28;20198;-79
2023/02/14 02:55:19;;;;;;;29.27;18.02;;;5.80;99.90;;;;;;5095510;28;20193;-79
2023/02/14 02:57:47;;;;;;;28.15;16.52;;;5.80;1.00;;;;;;5095332;28;20633;-79
2023/02/14 03:00:16;;;;;;;35.38;18.67;;;5.80;1.00;;;;;;5110400;22;20293;-83
2023/02/14 03:05:33;;;;;;;27.40;15.73;;;6.10;1.00;;;;;;5061421;28;20293;-83
2023/02/14 03:08:02;;;;;;;29.55;15.35;;;6.20;1.00;;;;;;5067924;28;20234;-83
2023/02/14 03:10:33;;;;;;;29.33;15.50;;;6.10;1.00;;;;;;5073658;28;20322;-81
2023/02/14 03:13:28;;;;;;;35.85;16.50;;;5.80;1.00;;;;;;5072630;28;20219;-82
2023/02/14 03:16:24;;;;;;;25.23;15.75;;;5.90;1.00;;;;;;5070824;28;20247;-83
2023/02/14 03:19:25;;;;;;;35.22;19.50;;;6.00;1.00;;;;;;5059635;28;20544;-84
2023/02/14 03:21:57;;;;;;;30.45;18.48;;;6.20;1.00;;;;;;5012681;28;20652;-83
2023/02/14 03:24:33;;;;;;;31.50;18.55;;;6.10;1.00;;;;;;5058426;28;20184;-84
2023/02/14 03:27:06;;;;;;;37.20;18.25;;;5.90;1.00;;;;;;5057854;28;20214;-82
2023/02/14 03:29:43;;;;;;;30.58;17.60;;;5.90;1.00;;;;;;5062876;28;20197;-85
2023/02/14 03:32:16;;;;;;;29.85;16.83;;;6.20;1.00;;;;;;5058143;28;20311;-83
2023/02/14 03:34:53;;;;;;;37.40;18.77;;;5.90;1.00;;;;;;5058313;28;20184;-82
2023/02/14 03:37:22;;;;;;;35.55;18.30;;;5.80;1.00;;;;;;5057769;28;20189;-83
2023/02/14 03:39:59;;;;;;;31.17;17.35;;;6.20;1.00;;;;;;5057287;28;20580;-82
2023/02/14 03:42:30;;;;;;;34.97;17.83;;;6.30;8.10;;;;;;5057785;28;20187;-82
2023/02/14 03:44:58;;;;;;;29.52;16.00;;;5.90;1.00;;;;;;5058009;28;20218;-82
2023/02/14 03:47:30;;;;;;;32.03;16.58;;;5.80;1.00;;;;;;5058084;28;20223;-83
2023/02/14 03:50:02;;;;;;;35.25;17.05;;;5.80;99.90;;;;;;5058707;28;20183;-84
2023/02/14 03:52:30;;;;;;;32.33;15.35;;;5.60;1.00;;;;;;5058415;28;20560;-83
2023/02/14 03:55:02;;;;;;;34.95;15.13;;;5.70;99.90;;;;;;5058516;28;20669;-86
2023/02/14 03:57:32;;;;;;;28.63;16.05;;;6.10;99.90;;;;;;5059150;28;20194;-83
2023/02/14 03:59:59;;;;;;;26.48;14.45;;;5.80;97.80;;;;;;5060360;28;20187;-82
2023/02/14 04:02:31;;;;;;;29.65;15.77;;;5.80;99.90;;;;;;5062271;28;20302;-83
2023/02/14 04:05:01;;;;;;;28.75;15.48;;;6.00;65.70;;;;;;5071279;28;20191;-83
2023/02/14 04:07:28;;;;;;;29.60;16.77;;;;;;;;;;5077624;28;20290;-83
2023/02/14 04:09:55;;;;;;;32.25;15.95;;;5.70;1.00;;;;;;5075744;28;20199;-83
2023/02/14 04:12:23;;;;;;;28.90;15.15;;;6.10;40.30;;;;;;5075796;28;20223;-84
2023/02/14 04:14:50;;;;;;;24.40;14.20;;;6.10;99.90;;;;;;5075339;28;20206;-84
2023/02/14 04:20:00;;;;;;;32.70;15.95;;;6.20;1.00;;;;;;5070230;28;20187;-83
2023/02/14 04:22:28;;;;;;;25.33;15.25;;;;;;;;;;5062256;28;20203;-83
2023/02/14 04:24:54;;;;;;;26.25;15.73;;;6.00;1.00;;;;;;5061950;28;20669;-83
2023/02/14 04:27:23;;;;;;;29.05;15.77;;;5.80;99.90;;;;;;5061393;28;20253;-84
2023/02/14 04:29:51;;;;;;;28.77;14.98;;;5.60;3.90;;;;;;5061728;28;20207;-84
2023/02/14 04:32:20;;;;;;;28.15;16.38;;;6.10;93.30;;;;;;5067301;28;20227;-82
2023/02/14 04:34:47;;;;;;;33.55;16.08;;;6.00;94.90;;;;;;5075653;28;20307;-83
2023/02/14 04:37:16;;;;;;;31.15;15.32;;;5.30;29.70;;;;;;5062892;28;20204;-84
2023/02/14 04:39:43;;;;;;;27.80;16.52;;;6.00;77.80;;;;;;5063455;28;20517;-84
2023/02/14 04:42:10;;;;;;;31.05;15.38;;;5.80;1.00;;;;;;5062248;28;20219;-84
2023/02/14 04:44:38;;;;;;;24.60;15.05;;;5.50;29.50;;;;;;5066580;28;20210;-84
2023/02/14 04:47:05;;;;;;;26.92;15.52;;;;;;;;;;5062860;28;20224;-84
2023/02/14 04:49:32;;;;;;;32.42;16.00;;;5.40;90.10;;;;;;5061508;28;20575;-84
2023/02/14 04:52:00;;;;;;;28.63;16.15;;;5.70;1.00;;;;;;5061652;28;20291;-84
2023/02/14 04:54:27;;;;;;;28.65;16.05;;;5.90;1.00;;;;;;5062401;28;20207;-85
2023/02/14 04:56:54;;;;;;;33.60;17.15;;;5.60;48.20;;;;;;5066316;28;20214;-84
2023/02/14 04:59:21;;;;;;;35.33;15.93;;;5.20;99.90;;;;;;5058781;28;20564;-84
2023/02/14 05:01:49;;;;;;;30.60;17.23;;;6.00;99.90;;;;;;5063638;28;20235;-82
2023/02/14 05:04:16;;;;;;;29.17;15.00;;;6.10;99.90;;;;;;5063595;28;20199;-83
2023/02/14 05:06:43;;;;;;;26.58;15.65;;;6.10;20.80;;;;;;5065097;28;20230;-83
2023/02/14 05:09:10;;;;;;;26.70;14.55;;;5.40;99.90;;;;;;5061885;28;20213;-84
2023/02/14 05:11:37;;;;;;;32.95;15.35;;;;;;;;;;5061121;28;20219;-84
2023/02/14 05:14:04;;;;;;;31.20;16.08;;;5.30;1.00;;;;;;5060959;28;20271;-84
2023/02/14 05:16:31;;;;;;;25.17;14.18;;;5.80;99.90;;;;;;5061703;28;20203;-83
2023/02/14 05:18:59;;;;;;;29.77;16.55;;;5.90;99.90;;;;;;5071170;28;20213;-83
2023/02/14 05:21:27;;;;;;;27.98;15.85;;;5.60;99.90;;;;;;5073468;28;20223;-84
2023/02/14 05:23:54;;;;;;;32.10;17.45;;;5.70;99.90;;;;;;5065211;28;20229;-83
2023/02/14 05:26:20;;;;;;;35.78;16.35;;;5.80;98.30;;;;;;5061983;28;20301;-84
2023/02/14 05:28:47;;;;;;;30.08;17.05;;;5.40;92.50;;;;;;5061598;28;20227;-83
2023/02/14 05:31:14;;;;;;;30.05;18.00;;;6.00;16.90;;;;;;5064336;28;20657;-84
2023/02/14 05:33:41;;;;;;;24.23;14.38;;;5.70;1.00;;;;;;5062609;28;20635;-82
2023/02/14 05:36:10;;;;;;;28.60;16.25;;;5.90;34.80;;;;;;5063291;28;20213;-83
2023/02/14 05:38:37;;;;;;;25.88;14.15;;;;;;;;;;5063354;28;20199;-84
2023/02/14 05:41:05;;;;;;;35.75;17.65;;;5.60;59.00;;;;;;5065883;28;20225;-84
2023/02/14 05:43:31;;;;;;;26.77;16.45;;;5.60;72.90;;;;;;5062520;28;20687;-84
2023/02/14 05:45:59;;;;;;;33.35;18.48;;;6.10;99.90;;;;;;5062312;28;20211;-84
2023/02/14 05:48:25;;;;;;;36.13;16.25;;;6.00;99.90;;;;;;5075935;28;20219;-84
2023/02/14 05:50:52;;;;;;;69.75;41.75;;;6.30;1.00;;;;;;5079148;28;20289;-84
2023/02/14 05:53:20;;;;;;;35.03;17.42;;;5.50;1.00;;;;;;5078653;28;20187;-82
2023/02/14 05:55:47;;;;;;;28.40;14.82;;;5.40;24.30;;;;;;5062764;28;20207;-83
2023/02/14 05:58:14;;;;;;;31.80;17.85;;;5.80;28.80;;;;;;5062019;28;20204;-83
2023/02/14 06:00:41;;;;;;;30.73;16.08;;;6.00;78.20;;;;;;5064751;28;20231;-83
2023/02/14 06:03:08;;;;;;;30.20;16.25;;;6.00;99.90;;;;;;5061874;28;20681;-83
2023/02/14 06:05:35;;;;;;;32.35;18.05;;;;;;;;;;5073941;28;20210;-84
2023/02/14 06:08:02;;;;;;;31.75;16.75;;;6.00;19.60;;;;;;5079691;28;20242;-84
2023/02/14 06:10:30;;;;;;;40.72;17.63;;;5.60;99.90;;;;;;5067482;28;20224;-85
2023/02/14 06:12:57;;;;;;;39.65;18.00;;;5.60;98.10;;;;;;5061691;28;20203;-85
2023/02/14 06:15:24;;;;;;;33.40;17.05;;;5.70;99.90;;;;;;5060831;28;20203;-85
2023/02/14 06:17:52;;;;;;;31.85;18.15;;;5.30;99.90;;;;;;5060395;28;20203;-85
2023/02/14 06:20:19;;;;;;;29.70;18.50;;;5.90;99.90;;;;;;5060385;28;20258;-85
2023/02/14 06:22:46;;;;;;;34.35;18.08;;;5.80;99.90;;;;;;5060879;28;20277;-84
2023/02/14 06:25:13;;;;;;;38.67;18.25;;;5.70;99.90;;;;;;5060900;28;20574;-84
2023/02/14 06:27:41;;;;;;;38.10;19.42;;;5.90;99.90;;;;;;5066691;28;20658;-82
2023/02/14 06:30:10;;;;;;;34.85;16.60;;;5.90;52.70;;;;;;5076197;28;20234;-83
2023/02/14 06:32:36;;;;;;;30.50;16.50;;;6.00;45.90;;;;;;5076136;28;20209;-84
2023/02/14 06:35:03;;;;;;;32.10;16.98;;;5.90;76.20;;;;;;5075547;28;20262;-83
2023/02/14 06:37:30;;;;;;;37.42;17.70;;;5.20;55.80;;;;;;5073123;28;20259;-84
2023/02/14 06:39:58;;;;;;;27.63;17.00;;;;;;;;;;5063409;28;20283;-87
2023/02/14 06:42:25;;;;;;;29.75;17.23;;;5.40;83.60;;;;;;5061069;28;20207;-83
2023/02/14 06:44:53;;;;;;;31.65;16.60;;;5.60;88.80;;;;;;5058152;28;20207;-83
2023/02/14 06:47:20;;;;;;;39.38;23.23;;;5.80;42.60;;;;;;5057168;28;20242;-83
2023/02/14 06:49:47;;;;;;;32.85;18.13;;;5.30;33.10;;;;;;5058052;28;20302;-83
2023/02/14 06:52:14;;;;;;;36.30;17.83;;;5.40;99.90;;;;;;5057994;28;20285;-83
2023/02/14 06:54:41;;;;;;;34.67;19.00;;;5.40;1.00;;;;;;5058805;28;20294;-84
2023/02/14 06:57:07;;;;;;;34.15;19.55;;;5.40;13.60;;;;;;5058441;28;20203;-83
2023/02/14 06:59:34;;;;;;;32.15;18.20;;;5.60;1.00;;;;;;5058923;28;20225;-83
2023/02/14 07:02:03;;;;;;;33.20;18.88;;;5.50;1.00;;;;;;5058563;28;20231;-83
2023/02/14 07:04:29;;;;;;;31.88;18.25;;;6.10;1.00;;;;;;5059245;28;20301;-84
2023/02/14 07:06:56;;;;;;;38.03;18.25;;;5.00;1.00;;;;;;5059116;28;20204;-83
2023/02/14 07:09:24;;;;;;;28.00;17.02;;;5.70;1.00;;;;;;5059236;28;20259;-84
2023/02/14 07:11:50;;;;;;;31.85;17.60;;;5.70;99.70;;;;;;5059013;28;20601;-83
2023/02/14 07:14:17;;;;;;;39.03;18.77;;;5.70;1.00;;;;;;5059959;28;20311;-83
2023/02/14 07:16:44;;;;;;;31.38;17.10;;;6.40;1.00;;;;;;5064257;28;20203;-83
2023/02/14 07:19:12;;;;;;;29.75;16.77;;;5.80;1.00;;;;;;5063680;28;20289;-83
2023/02/14 07:21:40;;;;;;;34.10;20.92;;;5.70;91.60;;;;;;5060700;28;20231;-83
2023/02/14 07:24:07;;;;;;;42.50;19.90;;;6.10;72.90;;;;;;5060800;28;20213;-84
2023/02/14 07:26:34;;;;;;;40.15;17.23;;;5.80;1.00;;;;;;5060458;28;20203;-84
2023/02/14 07:29:01;;;;;;;32.53;17.02;;;6.20;59.50;;;;;;5060087;28;20271;-84
2023/02/14 07:31:28;;;;;;;33.90;19.90;;;5.80;1.00;;;;;;5059362;28;20728;-84
2023/02/14 07:33:55;;;;;;;30.35;19.73;;;5.70;1.00;;;;;;5058909;28;20581;-84
2023/02/14 07:36:23;;;;;;;33.35;17.05;;;5.90;1.00;;;;;;5059101;28;20203;-83
2023/02/14 07:38:52;;;;;;;35.50;19.73;;;5.80;24.30;;;;;;5058995;28;20294;-83
2023/02/14 07:41:19;;;;;;;30.75;16.85;;;6.00;1.00;;;;;;5058847;28;20755;-83
2023/02/14 07:43:46;;;;;;;36.35;18.85;;;;;;;;;;5062654;28;20203;-83
2023/02/14 07:46:13;;;;;;;33.90;18.25;;;;;;;;;;5062066;28;20207;-83
2023/02/14 07:48:40;;;;;;;35.63;18.92;;;5.60;54.60;;;;;;5060602;28;20247;-83
2023/02/14 07:51:07;;;;;;;40.63;18.75;;;;;;;;;;5058973;28;20259;-82
2023/02/14 07:53:35;;;;;;;39.45;18.80;;;6.20;80.00;;;;;;5058093;28;20213;-84
2023/02/14 07:56:02;;;;;;;38.75;19.05;;;5.90;99.90;;;;;;5060858;28;20203;-84
2023/02/14 07:58:29;;;;;;;29.52;17.30;;;5.90;1.00;;;;;;5063590;28;20232;-85
2023/02/14 08:00:56;;;;;;;32.40;17.08;;;;;;;;;;5063070;28;20299;-85
2023/02/14 08:03:23;;;;;;;37.25;18.80;;;5.70;1.00;;;;;;5061916;28;20289;-84
2023/02/14 08:05:55;;;;;;;35.38;17.58;;;6.20;87.30;;;;;;5061543;28;20754;-84
2023/02/14 08:08:27;;;;;;;46.13;20.85;;;6.50;91.20;;;;;;5061227;28;20214;-84
2023/02/14 08:10:55;;;;;;;37.42;19.90;;;6.50;93.50;;;;;;5061091;28;20227;-84
2023/02/14 08:13:22;;;;;;;34.08;19.67;;;5.70;1.00;;;;;;5059516;28;20203;-83
2023/02/14 08:16:04;;;;;;;35.63;21.52;;;;;;;;;;5060559;28;20227;-83
2023/02/14 08:18:33;;;;;;;34.00;18.10;;;6.00;1.00;;;;;;5061730;28;20184;-82
2023/02/14 08:21:00;;;;;;;33.95;18.42;;;6.20;1.00;;;;;;5061409;28;20721;-85
2023/02/14 08:23:27;;;;;;;34.50;18.10;;;6.50;1.00;;;;;;5062409;28;20207;-83
2023/02/14 08:25:55;;;;;;;33.35;18.75;;;6.10;8.40;;;;;;5066830;28;20263;-83
2023/02/14 08:28:22;;;;;;;33.42;18.00;;;6.00;1.00;;;;;;5066792;28;20239;-83
2023/02/14 08:30:50;;;;;;;34.92;19.17;;;6.10;54.70;;;;;;5071851;28;20227;-84
2023/02/14 08:33:17;;;;;;;32.67;17.20;;;6.20;16.80;;;;;;5068172;28;20266;-82
2023/02/14 08:35:43;;;;;;;34.58;20.58;;;6.50;15.60;;;;;;5062355;28;20203;-83
2023/02/14 08:38:10;;;;;;;39.38;21.35;;;6.30;1.00;;;;;;5061513;28;20196;-85
2023/02/14 08:40:37;;;;;;;39.40;22.45;;;5.80;8.90;;;;;;5060622;28;20220;-84
2023/02/14 08:43:06;;;;;;;37.67;20.95;;;6.30;1.00;;;;;;5059516;28;20298;-83
2023/02/14 08:45:33;;;;;;;37.22;19.60;;;6.10;1.00;;;;;;5059705;28;20581;-84
2023/02/14 08:48:04;;;;;;;35.45;20.10;;;6.50;1.00;;;;;;5061852;28;20233;-84
2023/02/14 08:50:31;;;;;;;30.80;19.27;;;6.10;1.00;;;;;;5062816;28;20235;-83
2023/02/14 08:52:58;;;;;;;38.80;20.27;;;7.20;1.00;;;;;;5062458;28;20245;-83
2023/02/14 08:55:27;;;;;;;30.77;18.30;;;6.20;1.00;;;;;;5062488;28;20206;-80
2023/02/14 08:58:03;;;;;;;32.05;18.02;;;6.90;1.00;;;;;;5061923;28;20203;-85
2023/02/14 09:00:32;;;;;;;34.63;18.40;;;6.60;99.90;;;;;;5076459;22;20270;-80
2023/02/14 09:02:59;;;;;;;26.93;16.03;;;6.40;1.00;;;;;;5096424;28;20224;-79
2023/02/14 09:05:26;;;;;;;34.47;17.92;;;7.00;1.00;;;;;;5096900;28;20473;-78
2023/02/14 09:07:54;;;;;;;39.50;19.02;;;7.10;1.00;;;;;;5098519;28;20753;-80
2023/02/14 09:10:22;;;;;;;30.42;18.88;;;6.40;1.00;;;;;;5097626;28;20244;-79
2023/02/14 09:12:48;;;;;;;33.40;18.00;;;6.70;1.00;;;;;;5097343;28;20228;-78
2023/02/14 09:15:15;;;;;;;30.85;19.08;;;6.50;1.00;;;;;;5098026;28;20201;-78
2023/02/14 09:17:44;;;;;;;32.15;17.77;;;6.40;1.00;;;;;;5097809;28;20698;-78
2023/02/14 09:20:13;;;;;;;34.23;17.20;;;6.50;1.00;;;;;;5096930;28;20208;-79
2023/02/14 09:22:39;;;;;;;33.13;18.98;;;6.30;1.00;;;;;;5096087;28;20506;-78
2023/02/14 09:25:07;;;;;;;34.38;16.15;;;;;;;;;;5096516;28;20208;-78
2023/02/14 09:27:33;;;;;;;25.20;15.30;;;6.80;1.00;;;;;;5097610;28;20224;-78
2023/02/14 09:30:00;;;;;;;25.35;16.70;;;6.50;1.00;;;;;;5100823;28;20232;-79
2023/02/14 09:32:28;;;;;;;26.27;15.70;;;6.90;1.00;;;;;;5103255;28;20226;-80
2023/02/14 09:34:56;;;;;;;32.37;16.43;;;6.40;1.00;;;;;;5110816;28;20206;-78
2023/02/14 09:37:23;;;;;;;26.52;14.95;;;;;;;;;;5113515;28;20447;-79
2023/02/14 09:39:50;;;;;;;28.13;17.67;;;6.60;1.00;;;;;;5101358;28;20194;-80
2023/02/14 09:42:41;;;;;;;29.95;18.10;;;6.50;99.90;;;;;;5098886;28;20222;-80
2023/02/14 09:45:12;;;;;;;31.00;17.58;;;6.80;99.90;;;;;;5098423;28;20275;-80
2023/02/14 09:47:44;;;;;;;31.77;17.48;;;7.10;99.90;;;;;;5098198;28;20217;-79
2023/02/14 09:50:20;;;;;;;26.47;18.00;;;6.70;1.00;;;;;;5098910;28;20279;-79
2023/02/14 09:52:55;;;;;;;29.92;16.77;;;6.60;1.00;;;;;;5098246;28;20450;-79
2023/02/14 09:55:23;;;;;;;36.40;18.80;;;7.40;99.90;;;;;;5097680;28;20190;-78
2023/02/14 09:58:05;;;;;;;29.48;17.00;;;6.90;1.00;;;;;;5097669;28;20202;-79
2023/02/14 10:00:37;;;;;;;32.00;17.80;;;7.10;1.00;;;;;;5096873;28;20632;-78
2023/02/14 10:03:28;;;;;;;41.78;18.67;;;7.40;99.90;;;;;;5097782;28;20502;-80
2023/02/14 10:06:02;;;;;;;35.13;17.57;;;6.80;99.90;;;;;;5098231;28;20555;-78
2023/02/14 10:08:44;;;;;;;29.90;17.98;;;7.30;99.90;;;;;;5115538;28;20460;-76
2023/02/14 10:11:15;;;;;;;39.30;19.20;;;6.70;99.90;;;;;;5119983;28;20285;-78
2023/02/14 10:13:48;;;;;;;30.92;16.17;;;6.70;99.90;;;;;;5108485;28;20194;-80
2023/02/14 10:16:22;;;;;;;27.53;16.50;;;7.00;99.90;;;;;;5100276;28;20198;-80
2023/02/14 10:18:56;;;;;;;29.63;16.40;;;7.00;1.00;;;;;;5098500;28;20435;-80
2023/02/14 10:21:28;;;;;;;26.27;16.23;;;7.40;1.00;;;;;;5097126;28;20222;-79
2023/02/14 10:24:03;;;;;;;34.15;18.33;;;6.90;17.70;;;;;;5097099;28;20447;-80
2023/02/14 10:26:36;;;;;;;28.80;16.97;;;7.40;87.60;;;;;;5097530;28;20186;-79
2023/02/14 10:29:06;;;;;;;29.23;16.93;;;7.00;1.00;;;;;;5098698;28;20496;-80
2023/02/14 10:31:41;;;;;;;29.83;17.75;;;6.90;24.00;;;;;;5098688;28;20435;-79
2023/02/14 10:34:16;;;;;;;32.57;18.20;;;7.10;99.90;;;;;;5098605;28;20273;-79
2023/02/14 10:36:56;;;;;;;30.52;18.25;;;7.00;1.00;;;;;;5099948;28;20435;-79
2023/02/14 10:39:39;;;;;;;29.73;17.57;;;6.60;99.00;;;;;;5102227;28;20183;-80
2023/02/14 10:42:19;;;;;;;24.70;15.13;;;6.90;99.90;;;;;;5097466;28;20506;-80
2023/02/14 10:44:53;;;;;;;34.53;18.95;;;7.30;99.90;;;;;;5096733;28;20277;-80
2023/02/14 10:47:34;;;;;;;33.40;19.73;;;6.80;1.00;;;;;;5096613;28;20197;-80
2023/02/14 10:50:10;;;;;;;32.33;18.67;;;7.20;2.20;;;;;;5098402;28;20486;-80
2023/02/14 10:52:46;;;;;;;29.90;17.20;;;7.10;1.00;;;;;;5097643;28;20222;-80
2023/02/14 10:55:19;;;;;;;28.08;16.75;;;7.30;1.00;;;;;;5106047;28;20412;-79
2023/02/14 10:57:51;;;;;;;36.28;18.48;;;7.30;1.00;;;;;;5101289;28;20190;-79
2023/02/14 11:00:22;;;;;;;25.40;16.27;;;7.10;1.00;;;;;;5105967;28;20261;-80
2023/02/14 11:02:53;;;;;;;27.52;17.50;;;7.00;1.00;;;;;;5100784;28;20475;-79
2023/02/14 11:05:26;;;;;;;32.00;17.25;;;7.00;1.00;;;;;;5102484;28;20282;-80
2023/02/14 11:07:57;;;;;;;28.20;16.48;;;6.60;1.00;;;;;;5101182;28;20186;-80
2023/02/14 11:10:28;;;;;;;35.00;18.30;;;6.70;1.00;;;;;;5096945;28;20259;-80
2023/02/14 11:12:55;;;;;;;34.42;18.60;;;6.60;1.00;;;;;;5098224;28;20182;-79
2023/02/14 11:15:26;;;;;;;31.77;17.60;;;7.00;6.00;;;;;;5098225;28;20273;-80
2023/02/14 11:18:09;;;;;;;33.05;19.55;;;7.30;1.00;;;;;;5098234;28;20189;-80
2023/02/14 11:20:36;;;;;;;31.87;18.37;;;7.10;1.00;;;;;;5096453;28;20235;-79
2023/02/14 11:23:18;;;;;;;33.43;17.37;;;6.70;1.00;;;;;;5095798;28;20443;-80
2023/02/14 11:25:51;;;;;;;30.23;17.40;;;7.10;1.00;;;;;;5096199;28;20975;-79
2023/02/14 11:28:20;;;;;;;33.10;18.13;;;7.00;1.00;;;;;;5097114;28;20437;-80
2023/02/14 11:30:48;;;;;;;32.53;18.80;;;7.30;1.00;;;;;;5096567;28;20493;-79
2023/02/14 11:33:29;;;;;;;29.20;16.83;;;7.20;1.00;;;;;;5097558;28;20821;-80
2023/02/14 11:35:56;;;;;;;28.33;16.30;;;6.80;1.00;;;;;;5095625;28;20428;-79
2023/02/14 11:38:30;;;;;;;26.58;15.95;;;6.70;1.00;;;;;;5095623;28;20691;-79
2023/02/14 11:40:58;;;;;;;26.35;16.75;;;7.30;1.00;;;;;;5096450;28;20237;-80
2023/02/14 11:43:32;;;;;;;25.90;15.77;;;7.00;99.90;;;;;;5104732;28;20233;-80
2023/02/14 11:46:14;;;;;;;28.13;16.10;;;6.90;99.90;;;;;;5106000;28;20512;-79
2023/02/14 11:48:55;;;;;;;27.37;17.57;;;6.90;99.90;;;;;;5104809;28;20439;-79
2023/02/14 11:51:30;;;;;;;23.30;15.63;;;6.80;1.00;;;;;;5101803;28;20474;-80
2023/02/14 11:54:04;;;;;;;30.05;15.13;;;6.80;99.90;;;;;;5100307;28;20402;-80
2023/02/14 11:56:52;;;;;;;27.67;16.97;;;7.50;1.00;;;;;;5096796;28;20206;-80
2023/02/14 11:59:30;;;;;;;28.17;15.27;;;7.40;1.00;;;;;;5097285;28;20420;-79
2023/02/14 12:02:01;;;;;;;32.13;17.80;;;7.50;1.00;;;;;;5096174;28;20614;-80
2023/02/14 12:04:34;;;;;;;25.40;15.48;;;7.20;99.90;;;;;;5096078;28;20773;-79
2023/02/14 12:07:20;;;;;;;33.87;19.60;;;7.20;1.00;;;;;;5095828;28;20186;-79
2023/02/14 12:10:05;;;;;;;28.25;17.25;;;6.90;1.00;;;;;;5095531;28;20534;-80
2023/02/14 12:12:33;;;;;;;28.73;16.73;;;;;;;;;;5095727;28;20232;-80
2023/02/14 12:15:22;;;;;;;26.55;16.77;;;7.30;99.90;;;;;;5096944;28;20418;-79
2023/02/14 12:17:56;;;;;;;30.27;17.13;;;7.30;45.00;;;;;;5095665;28;20424;-80
2023/02/14 12:20:32;;;;;;;27.20;16.73;;;7.30;21.20;;;;;;5099598;28;20188;-79
2023/02/14 12:23:06;;;;;;;39.07;17.53;;;7.40;1.00;;;;;;5104119;28;20434;-80
2023/02/14 12:25:42;;;;;;;27.20;16.17;;;7.10;99.90;;;;;;5103634;28;20432;-79
2023/02/14 12:28:13;;;;;;;27.57;15.67;;;7.00;1.00;;;;;;5101026;28;20445;-79
2023/02/14 12:30:40;;;;;;;28.53;15.10;;;7.40;1.00;;;;;;5099910;28;20978;-79
2023/02/14 12:33:17;;;;;;;26.53;17.50;;;7.00;99.90;;;;;;5099821;28;20434;-79
2023/02/14 12:35:53;;;;;;;28.67;17.80;;;6.80;1.00;;;;;;5099873;28;20401;-80
2023/02/14 12:38:30;;;;;;;25.30;14.63;;;7.60;1.00;;;;;;5100165;28;20190;-80
2023/02/14 12:41:08;;;;;;;28.43;15.77;;;6.90;1.00;;;;;;5101503;28;20214;-80
2023/02/14 12:43:49;;;;;;;29.10;17.13;;;7.20;99.90;;;;;;5101062;28;20433;-80
2023/02/14 12:46:36;;;;;;;45.03;18.27;;;7.50;1.00;;;;;;5101920;28;20506;-80
2023/02/14 12:49:28;;;;;;;39.73;16.80;;;7.20;99.90;;;;;;5113992;28;20265;-78
2023/02/14 12:52:09;;;;;;;31.58;18.60;;;7.30;99.90;;;;;;5108135;28;20438;-79
2023/02/14 12:54:49;;;;;;;29.35;17.08;;;7.40;84.90;;;;;;5103365;28;20192;-80
2023/02/14 12:57:31;;;;;;;27.97;15.90;;;7.50;1.00;;;;;;5104220;28;20190;-79
2023/02/14 13:00:06;;;;;;;26.67;17.23;;;7.50;1.00;;;;;;5105257;28;20410;-79
2023/02/14 13:02:56;;;;;;;28.97;18.07;;;7.60;99.90;;;;;;5105151;28;20769;-80
2023/02/14 13:05:31;;;;;;;29.60;18.43;;;7.20;99.90;;;;;;5103235;28;20914;-80
2023/02/14 13:08:16;;;;;;;31.73;17.83;;;7.90;99.90;;;;;;5105030;28;20504;-80
2023/02/14 13:10:54;;;;;;;25.90;15.87;;;7.00;99.90;;;;;;5108279;28;20442;-78
2023/02/14 13:13:33;;;;;;;27.23;16.80;;;6.90;99.90;;;;;;5109461;28;20940;-79
2023/02/14 13:16:12;;;;;;;24.30;15.77;;;6.80;1.00;;;;;;5106095;28;20515;-79
2023/02/14 13:18:47;;;;;;;30.03;17.67;;;7.00;1.00;;;;;;5100698;28;20192;-81
2023/02/14 13:21:17;;;;;;;27.25;16.17;;;7.50;99.90;;;;;;5101299;28;20499;-79
2023/02/14 13:23:46;;;;;;;28.10;15.43;;;6.70;99.90;;;;;;5101191;28;20203;-79
2023/02/14 13:26:17;;;;;;;30.50;16.47;;;6.90;99.90;;;;;;5104925;28;20866;-79